createdAt,value
2022-08-29T00:00:59.934Z,18.16
2022-08-29T00:02:01.742Z,18.14
2022-08-29T00:03:08.791Z,18.15
2022-08-29T00:04:10.917Z,18.14
2022-08-29T00:05:13.510Z,18.15
2022-08-29T00:06:15.597Z,18.17
2022-08-29T00:07:17.362Z,18.18
2022-08-29T00:08:19.718Z,18.18
2022-08-29T00:09:21.393Z,18.18
2022-08-29T00:10:23.202Z,18.17
2022-08-29T00:11:25.009Z,18.16
2022-08-29T00:12:26.766Z,18.16
2022-08-29T00:13:29.183Z,18.16
2022-08-29T00:14:31.200Z,18.17
2022-08-29T00:15:44.581Z,18.17
2022-08-29T00:16:47.279Z,18.16
2022-08-29T00:17:50.432Z,18.16
2022-08-29T00:18:52.141Z,18.15
2022-08-29T00:19:53.886Z,18.14
2022-08-29T00:20:55.569Z,18.13
2022-08-29T00:21:57.497Z,18.13
2022-08-29T00:22:59.425Z,18.11
2022-08-29T00:24:01.220Z,18.11
2022-08-29T00:25:04.871Z,18.09
2022-08-29T00:26:06.937Z,18.07
2022-08-29T00:27:08.569Z,18.06
2022-08-29T00:28:10.809Z,18.06
2022-08-29T00:29:12.586Z,18.05
2022-08-29T00:30:17.776Z,18.04
2022-08-29T00:31:19.430Z,18.03
2022-08-29T00:32:21.103Z,18.04
2022-08-29T00:33:22.836Z,18.04
2022-08-29T00:34:24.612Z,18.04
2022-08-29T00:35:31.067Z,18.02
2022-08-29T00:36:33.166Z,18.01
2022-08-29T00:37:35.336Z,18.00
2022-08-29T00:38:38.145Z,17.98
2022-08-29T00:39:40.217Z,17.97
2022-08-29T00:40:51.428Z,17.94
2022-08-29T00:41:53.942Z,17.91
2022-08-29T00:42:56.038Z,17.89
2022-08-29T00:43:57.874Z,17.87
2022-08-29T00:44:59.602Z,17.86
2022-08-29T00:46:18.002Z,17.85
2022-08-29T00:47:26.713Z,17.84
2022-08-29T00:48:28.908Z,17.83
2022-08-29T00:49:48.490Z,17.82
2022-08-29T00:50:58.746Z,17.82
2022-08-29T00:52:16.767Z,17.82
2022-08-29T00:53:28.897Z,17.80
2022-08-29T00:54:32.148Z,17.79
2022-08-29T00:55:37.387Z,17.79
2022-08-29T00:56:41.783Z,17.80
2022-08-29T00:57:47.969Z,17.80
2022-08-29T00:59:01.101Z,17.81
2022-08-29T01:00:06.567Z,17.82
2022-08-29T01:01:09.270Z,17.82
2022-08-29T01:02:11.276Z,17.82
2022-08-29T01:03:13.446Z,17.82
2022-08-29T01:04:23.613Z,17.82
2022-08-29T01:05:26.932Z,17.81
2022-08-29T01:06:30.528Z,17.81
2022-08-29T01:07:33.142Z,17.80
2022-08-29T01:08:35.872Z,17.80
2022-08-29T01:09:41.460Z,17.81
2022-08-29T01:11:02.766Z,17.81
2022-08-29T01:12:16.024Z,17.79
2022-08-29T01:13:17.965Z,17.79
2022-08-29T01:14:22.236Z,17.79
2022-08-29T01:15:25.633Z,17.78
2022-08-29T01:16:29.375Z,17.78
2022-08-29T01:17:40.371Z,17.77
2022-08-29T01:18:48.726Z,17.77
2022-08-29T01:19:56.437Z,17.77
2022-08-29T01:21:13.254Z,17.78
2022-08-29T01:22:23.942Z,17.78
2022-08-29T01:23:56.405Z,17.78
2022-08-29T01:24:59.624Z,17.78
2022-08-29T01:26:03.921Z,17.78
2022-08-29T01:27:06.473Z,17.78
2022-08-29T01:28:30.478Z,17.76
2022-08-29T01:29:32.394Z,17.73
2022-08-29T01:30:34.502Z,17.71
2022-08-29T01:31:56.010Z,17.68
2022-08-29T01:33:00.894Z,17.66
2022-08-29T01:34:02.977Z,17.66
2022-08-29T01:35:05.725Z,17.65
2022-08-29T01:36:10.606Z,17.64
2022-08-29T01:37:16.220Z,17.62
2022-08-29T01:38:27.614Z,17.60
2022-08-29T01:39:33.911Z,17.60
2022-08-29T01:40:35.890Z,17.59
2022-08-29T01:41:37.645Z,17.59
2022-08-29T01:42:39.960Z,17.60
2022-08-29T01:43:44.891Z,17.60
2022-08-29T01:44:54.522Z,17.61
2022-08-29T01:45:58.641Z,17.61
2022-08-29T01:47:03.004Z,17.61
2022-08-29T01:48:05.177Z,17.62
2022-08-29T01:49:09.383Z,17.62
2022-08-29T01:50:15.189Z,17.62
2022-08-29T01:51:18.189Z,17.62
2022-08-29T01:52:20.814Z,17.62
2022-08-29T01:53:22.585Z,17.60
2022-08-29T01:54:24.261Z,17.60
2022-08-29T01:55:25.943Z,17.59
2022-08-29T01:56:32.253Z,17.59
2022-08-29T01:57:33.949Z,17.61
2022-08-29T01:58:35.593Z,17.61
2022-08-29T01:59:38.214Z,17.62
2022-08-29T02:00:40.325Z,17.61
2022-08-29T02:01:57.158Z,17.62
2022-08-29T02:03:00.979Z,17.62
2022-08-29T02:04:03.393Z,17.63
2022-08-29T02:05:05.593Z,17.62
2022-08-29T02:06:09.988Z,17.61
2022-08-29T02:07:12.901Z,17.61
2022-08-29T02:08:14.935Z,17.61
2022-08-29T02:09:17.621Z,17.61
2022-08-29T02:10:20.182Z,17.60
2022-08-29T02:11:23.199Z,17.61
2022-08-29T02:12:26.316Z,17.61
2022-08-29T02:13:28.553Z,17.61
2022-08-29T02:14:30.499Z,17.60
2022-08-29T02:15:32.537Z,17.60
2022-08-29T02:16:34.409Z,17.60
2022-08-29T02:17:37.164Z,17.59
2022-08-29T02:18:42.386Z,17.58
2022-08-29T02:19:44.160Z,17.59
2022-08-29T02:20:46.201Z,17.59
2022-08-29T02:21:48.153Z,17.60
2022-08-29T02:22:49.887Z,17.59
2022-08-29T02:23:52.679Z,17.58
2022-08-29T02:24:54.465Z,17.58
2022-08-29T02:25:57.269Z,17.57
2022-08-29T02:26:59.089Z,17.57
2022-08-29T02:28:00.810Z,17.55
2022-08-29T02:29:02.621Z,17.53
2022-08-29T02:30:04.704Z,17.52
2022-08-29T02:31:07.625Z,17.52
2022-08-29T02:32:12.610Z,17.52
2022-08-29T02:33:15.909Z,17.52
2022-08-29T02:34:21.168Z,17.52
2022-08-29T02:35:24.219Z,17.52
2022-08-29T02:36:27.126Z,17.52
2022-08-29T02:37:29.190Z,17.53
2022-08-29T02:38:31.205Z,17.49
2022-08-29T02:39:33.801Z,17.51
2022-08-29T02:40:36.000Z,17.50
2022-08-29T02:41:38.719Z,17.51
2022-08-29T02:42:40.363Z,17.51
2022-08-29T02:43:42.954Z,17.50
2022-08-29T02:44:44.632Z,17.50
2022-08-29T02:45:47.647Z,17.49
2022-08-29T02:46:49.557Z,17.48
2022-08-29T02:47:51.469Z,17.48
2022-08-29T02:49:00.929Z,17.48
2022-08-29T02:50:05.959Z,17.47
2022-08-29T02:51:07.660Z,17.46
2022-08-29T02:52:09.538Z,17.44
2022-08-29T02:53:13.916Z,17.42
2022-08-29T02:54:15.903Z,17.40
2022-08-29T02:55:20.721Z,17.40
2022-08-29T02:56:22.702Z,17.39
2022-08-29T02:57:25.029Z,17.39
2022-08-29T02:58:26.717Z,17.38
2022-08-29T02:59:28.401Z,17.35
2022-08-29T03:00:30.987Z,17.34
2022-08-29T03:01:33.403Z,17.33
2022-08-29T03:02:35.247Z,17.32
2022-08-29T03:03:36.957Z,17.32
2022-08-29T03:04:38.714Z,17.31
2022-08-29T03:05:42.235Z,17.30
2022-08-29T03:06:43.909Z,17.30
2022-08-29T03:07:50.317Z,17.31
2022-08-29T03:08:54.160Z,17.31
2022-08-29T03:09:56.105Z,17.32
2022-08-29T03:10:58.226Z,17.32
2022-08-29T03:11:59.890Z,17.32
2022-08-29T03:13:01.688Z,17.32
2022-08-29T03:14:04.178Z,17.32
2022-08-29T03:15:07.550Z,17.32
2022-08-29T03:16:09.436Z,17.32
2022-08-29T03:17:11.345Z,17.32
2022-08-29T03:18:15.143Z,17.32
2022-08-29T03:19:17.053Z,17.30
2022-08-29T03:20:21.818Z,17.30
2022-08-29T03:21:26.675Z,17.31
2022-08-29T03:22:29.091Z,17.30
2022-08-29T03:23:30.808Z,17.29
2022-08-29T03:24:35.181Z,17.29
2022-08-29T03:25:37.486Z,17.28
2022-08-29T03:26:39.310Z,17.26
2022-08-29T03:27:41.671Z,17.24
2022-08-29T03:28:43.545Z,17.23
2022-08-29T03:29:45.653Z,17.23
2022-08-29T03:30:48.213Z,17.22
2022-08-29T03:31:49.876Z,17.20
2022-08-29T03:32:51.596Z,17.17
2022-08-29T03:33:53.236Z,17.15
2022-08-29T03:34:55.614Z,17.15
2022-08-29T03:35:57.305Z,17.13
2022-08-29T03:37:00.313Z,17.12
2022-08-29T03:38:02.038Z,17.12
2022-08-29T03:39:04.124Z,17.11
2022-08-29T03:40:08.342Z,17.11
2022-08-29T03:41:10.386Z,17.11
2022-08-29T03:42:12.995Z,17.11
2022-08-29T03:43:14.637Z,17.11
2022-08-29T03:44:18.287Z,17.12
2022-08-29T03:45:20.497Z,17.12
2022-08-29T03:46:22.644Z,17.14
2022-08-29T03:47:24.529Z,17.14
2022-08-29T03:48:26.225Z,17.14
2022-08-29T03:49:28.135Z,17.13
2022-08-29T03:50:29.904Z,17.13
2022-08-29T03:51:31.817Z,17.12
2022-08-29T03:52:33.677Z,17.12
2022-08-29T03:53:35.397Z,17.12
2022-08-29T03:54:38.401Z,17.13
2022-08-29T03:55:40.128Z,17.14
2022-08-29T03:56:41.968Z,17.13
2022-08-29T03:57:43.766Z,17.12
2022-08-29T03:58:48.105Z,17.11
2022-08-29T03:59:54.268Z,17.09
2022-08-29T04:00:56.022Z,17.07
2022-08-29T04:01:58.857Z,17.04
2022-08-29T04:03:00.954Z,17.02
2022-08-29T04:04:03.215Z,17.00
2022-08-29T04:05:08.779Z,17.00
2022-08-29T04:06:11.928Z,16.98
2022-08-29T04:07:14.887Z,16.97
2022-08-29T04:08:16.645Z,16.97
2022-08-29T04:09:18.556Z,16.95
2022-08-29T04:10:25.009Z,16.93
2022-08-29T04:11:28.251Z,16.91
2022-08-29T04:12:30.005Z,16.91
2022-08-29T04:13:31.719Z,16.90
2022-08-29T04:14:33.678Z,16.91
2022-08-29T04:15:37.377Z,16.91
2022-08-29T04:16:39.907Z,16.91
2022-08-29T04:17:53.103Z,16.90
2022-08-29T04:18:55.348Z,16.90
2022-08-29T04:19:57.103Z,16.89
2022-08-29T04:21:02.575Z,16.89
2022-08-29T04:22:05.951Z,16.87
2022-08-29T04:23:07.989Z,16.86
2022-08-29T04:24:09.839Z,16.84
2022-08-29T04:25:14.759Z,16.84
2022-08-29T04:26:36.047Z,16.83
2022-08-29T04:27:39.661Z,16.82
2022-08-29T04:28:41.490Z,16.82
2022-08-29T04:29:43.599Z,16.81
2022-08-29T04:30:51.553Z,16.80
2022-08-29T04:31:54.091Z,16.79
2022-08-29T04:32:56.662Z,16.80
2022-08-29T04:33:58.486Z,16.80
2022-08-29T04:35:00.264Z,16.79
2022-08-29T04:36:06.242Z,16.79
2022-08-29T04:37:07.935Z,16.79
2022-08-29T04:38:09.634Z,16.78
2022-08-29T04:39:12.263Z,16.76
2022-08-29T04:40:18.527Z,16.75
2022-08-29T04:41:21.235Z,16.72
2022-08-29T04:42:23.068Z,16.70
2022-08-29T04:43:24.957Z,16.69
2022-08-29T04:44:26.653Z,16.68
2022-08-29T04:45:29.021Z,16.67
2022-08-29T04:46:31.627Z,16.65
2022-08-29T04:47:36.596Z,16.64
2022-08-29T04:48:38.262Z,16.62
2022-08-29T04:49:42.330Z,16.61
2022-08-29T04:50:43.953Z,16.60
2022-08-29T04:51:45.627Z,16.59
2022-08-29T04:52:48.680Z,16.59
2022-08-29T04:53:51.806Z,16.58
2022-08-29T04:54:53.766Z,16.56
2022-08-29T04:56:06.994Z,16.54
2022-08-29T04:57:09.508Z,16.53
2022-08-29T04:58:13.051Z,16.53
2022-08-29T04:59:16.585Z,16.52
2022-08-29T05:00:24.954Z,16.53
2022-08-29T05:01:27.434Z,16.53
2022-08-29T05:02:29.320Z,16.55
2022-08-29T05:03:32.754Z,16.58
2022-08-29T05:04:34.396Z,16.59
2022-08-29T05:05:36.633Z,16.61
2022-08-29T05:06:38.286Z,16.63
2022-08-29T05:07:40.888Z,16.65
2022-08-29T05:08:44.002Z,16.66
2022-08-29T05:09:45.655Z,16.67
2022-08-29T05:10:47.726Z,16.64
2022-08-29T05:11:49.829Z,16.61
2022-08-29T05:12:51.553Z,16.59
2022-08-29T05:13:53.924Z,16.57
2022-08-29T05:14:56.358Z,16.56
2022-08-29T05:15:58.157Z,16.56
2022-08-29T05:16:59.894Z,16.58
2022-08-29T05:18:01.553Z,16.60
2022-08-29T05:19:06.535Z,16.61
2022-08-29T05:20:08.677Z,16.60
2022-08-29T05:21:11.241Z,16.60
2022-08-29T05:22:14.255Z,16.63
2022-08-29T05:23:18.527Z,16.67
2022-08-29T05:24:20.209Z,16.73
2022-08-29T05:25:22.096Z,16.78
2022-08-29T05:26:28.952Z,16.80
2022-08-29T05:27:30.740Z,16.79
2022-08-29T05:28:34.971Z,16.79
2022-08-29T05:29:41.842Z,16.79
2022-08-29T05:30:44.050Z,16.81
2022-08-29T05:31:46.210Z,16.82
2022-08-29T05:32:48.399Z,16.83
2022-08-29T05:33:50.501Z,16.83
2022-08-29T05:34:52.308Z,16.82
2022-08-29T05:35:54.206Z,16.81
2022-08-29T05:36:55.862Z,16.78
2022-08-29T05:37:57.580Z,16.75
2022-08-29T05:39:03.483Z,16.72
2022-08-29T05:40:05.894Z,16.73
2022-08-29T05:41:07.736Z,16.73
2022-08-29T05:42:11.944Z,16.75
2022-08-29T05:43:14.111Z,16.76
2022-08-29T05:44:15.909Z,16.75
2022-08-29T05:45:17.713Z,16.75
2022-08-29T05:46:20.059Z,16.74
2022-08-29T05:47:22.452Z,16.74
2022-08-29T05:48:24.112Z,16.76
2022-08-29T05:49:26.484Z,16.78
2022-08-29T05:50:28.263Z,16.80
2022-08-29T05:51:37.282Z,16.81
2022-08-29T05:52:41.188Z,16.81
2022-08-29T05:53:43.355Z,16.83
2022-08-29T05:54:46.147Z,16.83
2022-08-29T05:55:47.802Z,16.86
2022-08-29T05:56:49.837Z,16.88
2022-08-29T05:57:54.482Z,16.88
2022-08-29T05:58:56.588Z,16.88
2022-08-29T05:59:58.238Z,16.90
2022-08-29T06:00:59.877Z,16.90
2022-08-29T06:02:06.948Z,16.89
2022-08-29T06:03:09.957Z,16.89
2022-08-29T06:04:11.721Z,16.89
2022-08-29T06:05:13.629Z,16.89
2022-08-29T06:06:15.298Z,16.88
2022-08-29T06:07:17.736Z,16.88
2022-08-29T06:08:21.064Z,16.88
2022-08-29T06:09:22.878Z,16.87
2022-08-29T06:10:24.694Z,16.86
2022-08-29T06:11:30.804Z,16.86
2022-08-29T06:12:33.610Z,16.89
2022-08-29T06:13:35.263Z,16.92
2022-08-29T06:14:37.874Z,16.95
2022-08-29T06:15:44.340Z,16.98
2022-08-29T06:16:46.373Z,16.97
2022-08-29T06:17:48.688Z,16.96
2022-08-29T06:18:51.110Z,16.94
2022-08-29T06:19:52.796Z,16.95
2022-08-29T06:20:54.456Z,16.96
2022-08-29T06:21:56.878Z,16.99
2022-08-29T06:22:58.532Z,17.03
2022-08-29T06:24:00.207Z,17.05
2022-08-29T06:25:08.729Z,17.06
2022-08-29T06:26:24.219Z,17.06
2022-08-29T06:27:25.943Z,17.06
2022-08-29T06:28:29.044Z,17.06
2022-08-29T06:29:31.141Z,17.09
2022-08-29T06:30:33.931Z,17.13
2022-08-29T06:31:37.333Z,17.15
2022-08-29T06:32:39.921Z,17.15
2022-08-29T06:33:41.768Z,17.15
2022-08-29T06:34:43.481Z,17.16
2022-08-29T06:35:45.151Z,17.14
2022-08-29T06:36:47.225Z,17.13
2022-08-29T06:37:48.884Z,17.14
2022-08-29T06:38:50.522Z,17.13
2022-08-29T06:39:52.178Z,17.12
2022-08-29T06:40:54.486Z,17.11
2022-08-29T06:41:56.208Z,17.12
2022-08-29T06:42:59.015Z,17.13
2022-08-29T06:44:02.798Z,17.12
2022-08-29T06:45:06.374Z,17.16
2022-08-29T06:46:22.188Z,17.18
2022-08-29T06:47:23.890Z,17.18
2022-08-29T06:48:29.403Z,17.20
2022-08-29T06:49:33.352Z,17.24
2022-08-29T06:50:44.877Z,17.26
2022-08-29T06:51:54.140Z,17.30
2022-08-29T06:53:14.566Z,17.33
2022-08-29T06:54:22.914Z,17.37
2022-08-29T06:55:24.561Z,17.38
2022-08-29T06:56:26.611Z,17.41
2022-08-29T06:57:28.488Z,17.44
2022-08-29T06:58:30.122Z,17.46
2022-08-29T06:59:31.830Z,17.49
2022-08-29T07:00:33.894Z,17.54
2022-08-29T07:01:36.250Z,17.57
2022-08-29T07:02:38.932Z,17.58
2022-08-29T07:03:41.283Z,17.60
2022-08-29T07:04:43.047Z,17.62
2022-08-29T07:05:52.299Z,17.67
2022-08-29T07:06:54.104Z,17.70
2022-08-29T07:07:55.977Z,17.73
2022-08-29T07:08:58.824Z,17.76
2022-08-29T07:10:01.315Z,17.80
2022-08-29T07:11:02.998Z,17.84
2022-08-29T07:12:06.121Z,17.85
2022-08-29T07:13:07.968Z,17.86
2022-08-29T07:14:11.043Z,17.89
2022-08-29T07:15:12.717Z,17.92
2022-08-29T07:16:16.929Z,17.94
2022-08-29T07:17:25.622Z,17.94
2022-08-29T07:18:28.244Z,17.94
2022-08-29T07:19:29.872Z,17.92
2022-08-29T07:20:31.512Z,17.92
2022-08-29T07:21:33.631Z,17.93
2022-08-29T07:22:36.533Z,17.96
2022-08-29T07:23:38.279Z,17.98
2022-08-29T07:24:39.939Z,18.02
2022-08-29T07:25:41.696Z,18.05
2022-08-29T07:26:44.248Z,18.10
2022-08-29T07:27:47.545Z,18.15
2022-08-29T07:28:55.624Z,18.19
2022-08-29T07:29:57.577Z,18.24
2022-08-29T07:30:59.270Z,18.29
2022-08-29T07:32:02.138Z,18.35
2022-08-29T07:33:04.234Z,18.37
2022-08-29T07:34:06.457Z,18.40
2022-08-29T07:35:12.777Z,18.45
2022-08-29T07:36:15.395Z,18.52
2022-08-29T07:37:17.097Z,18.56
2022-08-29T07:38:18.861Z,18.62
2022-08-29T07:39:20.598Z,18.67
2022-08-29T07:40:22.557Z,18.72
2022-08-29T07:41:24.848Z,18.78
2022-08-29T07:42:27.386Z,18.81
2022-08-29T07:43:29.316Z,18.80
2022-08-29T07:44:34.583Z,18.78
2022-08-29T07:45:39.001Z,18.75
2022-08-29T07:46:41.798Z,18.74
2022-08-29T07:47:44.529Z,18.72
2022-08-29T07:48:47.425Z,18.73
2022-08-29T07:49:49.097Z,18.74
2022-08-29T07:50:52.377Z,18.75
2022-08-29T07:51:55.845Z,18.74
2022-08-29T07:52:57.522Z,18.76
2022-08-29T07:53:59.401Z,18.78
2022-08-29T07:55:01.697Z,18.82
2022-08-29T07:56:11.870Z,18.87
2022-08-29T07:57:16.817Z,18.93
2022-08-29T07:58:18.593Z,18.99
2022-08-29T07:59:21.613Z,19.03
2022-08-29T08:00:23.449Z,19.09
2022-08-29T08:01:25.966Z,19.13
2022-08-29T08:02:27.860Z,19.11
2022-08-29T08:03:31.295Z,19.10
2022-08-29T08:04:32.945Z,19.06
2022-08-29T08:05:34.821Z,19.03
2022-08-29T08:06:38.162Z,19.02
2022-08-29T08:07:42.630Z,19.01
2022-08-29T08:08:44.748Z,18.98
2022-08-29T08:09:48.418Z,18.99
2022-08-29T08:10:52.209Z,19.03
2022-08-29T08:11:54.424Z,19.08
2022-08-29T08:12:56.133Z,19.12
2022-08-29T08:13:58.432Z,19.17
2022-08-29T08:15:00.822Z,19.21
2022-08-29T08:16:12.978Z,19.25
2022-08-29T08:17:15.326Z,19.29
2022-08-29T08:18:17.194Z,19.34
2022-08-29T08:19:18.901Z,19.39
2022-08-29T08:20:20.726Z,19.39
2022-08-29T08:21:24.150Z,19.40
2022-08-29T08:22:25.794Z,19.41
2022-08-29T08:23:28.021Z,19.40
2022-08-29T08:24:29.695Z,19.42
2022-08-29T08:25:31.964Z,19.47
2022-08-29T08:26:33.664Z,19.53
2022-08-29T08:27:38.109Z,19.61
2022-08-29T08:28:43.918Z,19.66
2022-08-29T08:29:45.594Z,19.65
2022-08-29T08:30:47.405Z,19.64
2022-08-29T08:31:50.340Z,19.64
2022-08-29T08:32:54.762Z,19.63
2022-08-29T08:33:57.100Z,19.63
2022-08-29T08:34:58.866Z,19.63
2022-08-29T08:36:00.847Z,19.67
2022-08-29T08:37:07.873Z,19.68
2022-08-29T08:38:10.783Z,19.74
2022-08-29T08:39:14.432Z,19.80
2022-08-29T08:40:28.132Z,19.86
2022-08-29T08:41:51.520Z,19.93
2022-08-29T08:42:58.494Z,19.99
2022-08-29T08:44:26.872Z,20.05
2022-08-29T08:45:39.466Z,20.09
2022-08-29T08:46:47.355Z,20.07
2022-08-29T08:48:01.022Z,20.04
2022-08-29T08:49:12.353Z,19.95
2022-08-29T08:50:17.325Z,19.91
2022-08-29T08:51:28.646Z,19.91
2022-08-29T08:52:52.662Z,19.91
2022-08-29T08:53:59.173Z,19.92
2022-08-29T08:55:23.397Z,19.92
2022-08-29T08:56:45.577Z,19.94
2022-08-29T08:58:01.300Z,19.96
2022-08-29T08:59:13.767Z,19.99
2022-08-29T09:00:15.901Z,20.02
2022-08-29T09:01:43.380Z,20.07
2022-08-29T09:03:03.589Z,20.23
2022-08-29T09:04:27.122Z,20.39
2022-08-29T09:05:49.328Z,20.52
2022-08-29T09:07:02.900Z,20.56
2022-08-29T09:08:10.462Z,20.52
2022-08-29T09:09:24.308Z,20.48
2022-08-29T09:11:10.469Z,20.47
2022-08-29T09:12:46.100Z,20.51
2022-08-29T09:14:06.265Z,20.56
2022-08-29T09:15:13.908Z,20.53
2022-08-29T09:16:31.629Z,20.54
2022-08-29T09:17:52.790Z,20.55
2022-08-29T09:19:05.032Z,20.60
2022-08-29T09:20:15.074Z,20.55
2022-08-29T09:21:40.070Z,20.51
2022-08-29T09:22:55.478Z,20.51
2022-08-29T09:24:01.918Z,20.49
2022-08-29T09:25:11.136Z,20.55
2022-08-29T09:26:17.254Z,20.54
2022-08-29T09:27:22.252Z,20.46
2022-08-29T09:28:24.432Z,20.36
2022-08-29T09:29:29.578Z,20.26
2022-08-29T09:30:34.047Z,20.14
2022-08-29T09:31:36.024Z,20.04
2022-08-29T09:33:12.495Z,19.98
2022-08-29T09:34:50.805Z,19.94
2022-08-29T09:35:56.080Z,19.93
2022-08-29T09:36:57.788Z,20.00
2022-08-29T09:38:07.130Z,20.13
2022-08-29T09:39:10.933Z,20.18
2022-08-29T09:40:19.093Z,20.20
2022-08-29T09:41:28.323Z,20.24
2022-08-29T09:42:36.787Z,20.26
2022-08-29T09:43:38.737Z,20.24
2022-08-29T09:44:51.125Z,20.32
2022-08-29T09:46:17.990Z,20.47
2022-08-29T09:47:21.651Z,20.59
2022-08-29T09:48:24.550Z,20.67
2022-08-29T09:49:26.284Z,20.75
2022-08-29T09:50:28.197Z,20.81
2022-08-29T09:51:36.005Z,20.88
2022-08-29T09:52:51.181Z,20.93
2022-08-29T09:54:08.674Z,20.93
2022-08-29T09:55:20.289Z,20.80
2022-08-29T09:56:26.440Z,20.74
2022-08-29T09:57:29.514Z,20.77
2022-08-29T09:58:39.932Z,20.80
2022-08-29T10:00:15.630Z,20.85
2022-08-29T10:01:26.199Z,20.96
2022-08-29T10:02:48.061Z,21.04
2022-08-29T10:03:58.352Z,21.03
2022-08-29T10:05:12.970Z,20.91
2022-08-29T10:06:21.302Z,20.74
2022-08-29T10:07:32.282Z,20.58
2022-08-29T10:08:41.330Z,20.43
2022-08-29T10:09:54.831Z,20.27
2022-08-29T10:11:03.463Z,20.08
2022-08-29T10:12:17.415Z,19.98
2022-08-29T10:13:43.521Z,20.05
2022-08-29T10:15:02.208Z,20.22
2022-08-29T10:16:27.435Z,20.44
2022-08-29T10:18:09.720Z,20.60
2022-08-29T10:19:16.282Z,20.78
2022-08-29T10:20:18.091Z,20.80
2022-08-29T10:22:04.857Z,20.74
2022-08-29T10:23:17.932Z,20.69
2022-08-29T10:24:46.390Z,20.79
2022-08-29T10:25:53.681Z,20.81
2022-08-29T10:27:28.348Z,20.73
2022-08-29T10:28:43.013Z,20.54
2022-08-29T10:29:58.072Z,20.43
2022-08-29T10:31:02.718Z,20.31
2022-08-29T10:32:16.033Z,20.21
2022-08-29T10:33:25.675Z,20.14
2022-08-29T10:34:57.926Z,20.08
2022-08-29T10:36:14.035Z,20.16
2022-08-29T10:37:35.263Z,20.16
2022-08-29T10:39:01.144Z,20.13
2022-08-29T10:40:17.603Z,20.18
2022-08-29T10:41:40.363Z,20.23
2022-08-29T10:42:45.635Z,20.43
2022-08-29T10:44:11.208Z,20.56
2022-08-29T10:45:29.005Z,20.78
2022-08-29T10:46:54.958Z,21.01
2022-08-29T10:48:05.604Z,21.04
2022-08-29T10:49:22.060Z,21.03
2022-08-29T10:50:58.601Z,20.98
2022-08-29T10:52:14.870Z,21.08
2022-08-29T10:53:21.462Z,20.99
2022-08-29T10:54:52.537Z,20.89
2022-08-29T10:56:27.785Z,20.74
2022-08-29T10:57:45.281Z,20.53
2022-08-29T10:59:12.467Z,20.44
2022-08-29T11:00:18.578Z,20.69
2022-08-29T11:01:34.188Z,20.99
2022-08-29T11:02:47.341Z,21.43
2022-08-29T11:04:26.802Z,21.85
2022-08-29T11:05:38.638Z,22.33
2022-08-29T11:06:45.211Z,22.56
2022-08-29T11:07:56.168Z,22.71
2022-08-29T11:09:20.914Z,22.89
2022-08-29T11:10:29.155Z,23.16
2022-08-29T11:11:36.464Z,23.29
2022-08-29T11:13:01.330Z,23.42
2022-08-29T11:14:12.968Z,23.60
2022-08-29T11:15:18.173Z,23.82
2022-08-29T11:16:34.223Z,23.99
2022-08-29T11:17:41.531Z,24.15
2022-08-29T11:19:12.514Z,24.23
2022-08-29T11:20:24.159Z,24.31
2022-08-29T11:21:41.205Z,24.36
2022-08-29T11:23:20.707Z,24.40
2022-08-29T11:24:25.471Z,24.41
2022-08-29T11:25:29.497Z,24.42
2022-08-29T11:26:48.573Z,24.44
2022-08-29T11:27:57.788Z,24.48
2022-08-29T11:29:10.934Z,24.58
2022-08-29T11:30:22.798Z,24.77
2022-08-29T11:31:48.927Z,24.87
2022-08-29T11:33:14.921Z,24.97
2022-08-29T11:34:33.098Z,24.93
2022-08-29T11:35:50.810Z,24.93
2022-08-29T11:37:25.685Z,24.78
2022-08-29T11:39:01.058Z,24.48
2022-08-29T11:42:06.268Z,24.79
2022-08-29T11:43:15.766Z,24.91
2022-08-29T11:44:32.257Z,24.99
2022-08-29T11:45:40.869Z,25.04
2022-08-29T11:46:49.424Z,25.15
2022-08-29T11:48:02.926Z,25.17
2022-08-29T11:49:36.125Z,25.08
2022-08-29T11:50:39.500Z,25.21
2022-08-29T11:51:42.521Z,25.32
2022-08-29T11:53:07.873Z,25.44
2022-08-29T11:54:24.989Z,25.52
2022-08-29T11:55:31.778Z,25.41
2022-08-29T11:56:33.606Z,25.19
2022-08-29T11:57:35.360Z,25.07
2022-08-29T11:58:46.129Z,24.76
2022-08-29T11:59:51.126Z,24.38
2022-08-29T12:00:56.233Z,23.99
2022-08-29T12:02:01.517Z,23.55
2022-08-29T12:03:14.951Z,23.20
2022-08-29T12:04:52.993Z,22.80
2022-08-29T12:05:59.485Z,22.50
2022-08-29T12:07:04.001Z,22.39
2022-08-29T12:08:36.119Z,22.25
2022-08-29T12:10:00.561Z,22.11
2022-08-29T12:11:02.572Z,21.97
2022-08-29T12:12:04.469Z,22.21
2022-08-29T12:13:06.959Z,22.41
2022-08-29T12:14:08.698Z,22.40
2022-08-29T12:15:34.996Z,22.60
2022-08-29T12:16:50.877Z,22.95
2022-08-29T12:18:14.083Z,23.22
2022-08-29T12:19:47.112Z,23.57
2022-08-29T12:20:52.388Z,24.05
2022-08-29T12:21:54.570Z,24.37
2022-08-29T12:23:01.674Z,24.67
2022-08-29T12:24:29.237Z,24.90
2022-08-29T12:25:55.174Z,25.13
2022-08-29T12:27:03.236Z,25.26
2022-08-29T12:28:31.136Z,25.10
2022-08-29T12:29:44.780Z,25.06
2022-08-29T12:31:01.145Z,25.14
2022-08-29T12:32:22.559Z,24.84
2022-08-29T12:33:47.208Z,24.77
2022-08-29T12:35:11.276Z,24.79
2022-08-29T12:36:32.607Z,25.06
2022-08-29T12:38:00.478Z,25.18
2022-08-29T12:39:23.792Z,24.94
2022-08-29T12:40:34.561Z,24.51
2022-08-29T12:41:50.938Z,24.10
2022-08-29T12:43:09.733Z,24.06
2022-08-29T12:44:16.593Z,24.30
2022-08-29T12:45:24.621Z,24.26
2022-08-29T12:46:36.119Z,24.08
2022-08-29T12:47:52.217Z,23.84
2022-08-29T12:49:19.901Z,23.60
2022-08-29T12:50:26.697Z,23.57
2022-08-29T12:51:53.937Z,23.88
2022-08-29T12:53:26.966Z,24.35
2022-08-29T12:54:32.335Z,24.86
2022-08-29T12:55:43.364Z,25.13
2022-08-29T12:56:52.176Z,25.38
2022-08-29T12:57:53.986Z,25.60
2022-08-29T12:59:02.366Z,25.86
2022-08-29T13:00:15.765Z,26.05
2022-08-29T13:01:26.358Z,26.17
2022-08-29T13:02:35.228Z,26.25
2022-08-29T13:03:37.012Z,26.40
2022-08-29T13:04:43.811Z,26.57
2022-08-29T13:05:45.761Z,26.71
2022-08-29T13:07:04.882Z,26.84
2022-08-29T13:08:11.119Z,26.98
2022-08-29T13:09:31.678Z,27.08
2022-08-29T13:10:36.744Z,27.09
2022-08-29T13:11:39.269Z,27.06
2022-08-29T13:12:43.713Z,27.06
2022-08-29T13:13:45.411Z,27.11
2022-08-29T13:14:48.545Z,27.09
2022-08-29T13:16:01.405Z,27.01
2022-08-29T13:17:15.185Z,26.93
2022-08-29T13:18:17.425Z,26.92
2022-08-29T13:19:22.136Z,26.99
2022-08-29T13:20:42.702Z,27.04
2022-08-29T13:21:44.595Z,27.07
2022-08-29T13:22:46.308Z,27.15
2022-08-29T13:23:59.782Z,27.13
2022-08-29T13:25:06.250Z,27.05
2022-08-29T13:26:10.807Z,27.07
2022-08-29T13:27:21.599Z,27.19
2022-08-29T13:28:39.130Z,27.35
2022-08-29T13:29:42.704Z,27.70
2022-08-29T13:30:48.883Z,28.03
2022-08-29T13:32:23.136Z,27.87
2022-08-29T13:33:35.104Z,27.92
2022-08-29T13:34:37.883Z,28.02
2022-08-29T13:35:39.563Z,27.82
2022-08-29T13:36:58.986Z,27.77
2022-08-29T13:38:30.341Z,27.71
2022-08-29T13:39:41.066Z,27.78
2022-08-29T13:40:49.426Z,27.80
2022-08-29T13:42:08.732Z,27.48
2022-08-29T13:43:28.099Z,27.01
2022-08-29T13:44:38.716Z,26.46
2022-08-29T13:45:40.484Z,25.97
2022-08-29T13:46:47.131Z,25.53
2022-08-29T13:48:23.943Z,25.16
2022-08-29T13:49:36.826Z,24.70
2022-08-29T13:50:39.177Z,24.35
2022-08-29T13:51:40.861Z,24.16
2022-08-29T13:52:42.691Z,24.03
2022-08-29T13:53:45.368Z,24.23
2022-08-29T13:54:47.600Z,24.44
2022-08-29T13:55:49.326Z,24.49
2022-08-29T13:56:56.062Z,24.49
2022-08-29T13:57:57.834Z,24.79
2022-08-29T13:59:00.381Z,24.74
2022-08-29T14:00:05.271Z,24.57
2022-08-29T14:02:30.395Z,24.26
2022-08-29T14:03:32.980Z,24.12
2022-08-29T14:04:38.872Z,24.00
2022-08-29T14:05:42.579Z,23.88
2022-08-29T14:06:45.183Z,23.97
2022-08-29T14:07:47.140Z,24.30
2022-08-29T14:08:50.697Z,24.65
2022-08-29T14:09:52.961Z,24.68
2022-08-29T14:10:54.649Z,25.01
2022-08-29T14:11:56.302Z,25.13
2022-08-29T14:12:58.052Z,25.09
2022-08-29T14:13:59.945Z,24.97
2022-08-29T14:15:09.628Z,25.15
2022-08-29T14:16:11.927Z,25.51
2022-08-29T14:17:18.220Z,25.91
2022-08-29T14:18:20.967Z,26.39
2022-08-29T14:19:23.945Z,26.80
2022-08-29T14:20:25.811Z,27.12
2022-08-29T14:21:27.475Z,27.33
2022-08-29T14:22:29.141Z,27.35
2022-08-29T14:23:30.930Z,27.34
2022-08-29T14:24:33.882Z,27.18
2022-08-29T14:25:35.581Z,27.24
2022-08-29T14:26:38.882Z,27.28
2022-08-29T14:27:41.342Z,27.39